createdAt,value
2022-11-27T00:01:21.605Z,8.10
2022-11-27T00:03:48.908Z,8.20
2022-11-27T00:06:18.770Z,8.20
2022-11-27T00:08:46.736Z,8.30
2022-11-27T00:11:16.119Z,8.20
2022-11-27T00:13:42.789Z,8.20
2022-11-27T00:16:10.118Z,8.20
2022-11-27T00:18:37.220Z,8.20
2022-11-27T00:21:11.743Z,8.20
2022-11-27T00:23:38.443Z,8.20
2022-11-27T00:26:07.320Z,8.20
2022-11-27T00:28:34.951Z,8.20
2022-11-27T00:31:04.283Z,8.20
2022-11-27T00:33:31.373Z,8.30
2022-11-27T00:36:02.635Z,8.30
2022-11-27T00:38:29.370Z,8.30
2022-11-27T00:41:00.005Z,8.40
2022-11-27T00:43:26.671Z,8.40
2022-11-27T00:45:53.332Z,8.40
2022-11-27T00:48:19.983Z,8.50
2022-11-27T00:50:46.647Z,8.50
2022-11-27T00:53:13.447Z,8.50
2022-11-27T00:55:40.075Z,8.50
2022-11-27T00:58:06.733Z,8.50
2022-11-27T01:00:33.379Z,8.50
2022-11-27T01:03:00.124Z,8.50
2022-11-27T01:05:26.873Z,8.50
2022-11-27T01:07:53.604Z,8.50
2022-11-27T01:10:20.338Z,8.60
2022-11-27T01:12:49.765Z,8.50
2022-11-27T01:15:16.444Z,8.60
2022-11-27T01:17:43.072Z,8.50
2022-11-27T01:20:10.125Z,8.50
2022-11-27T01:22:36.764Z,8.40
2022-11-27T01:25:03.562Z,8.40
2022-11-27T01:27:30.206Z,8.40
2022-11-27T01:29:56.831Z,8.40
2022-11-27T01:32:23.477Z,8.30
2022-11-27T01:34:50.156Z,8.20
2022-11-27T01:37:16.810Z,8.00
2022-11-27T01:39:43.474Z,7.90
2022-11-27T01:42:11.851Z,7.80
2022-11-27T01:44:38.639Z,7.70
2022-11-27T01:47:19.609Z,7.60
2022-11-27T01:49:50.316Z,7.50
2022-11-27T01:52:26.276Z,7.40
2022-11-27T01:54:57.737Z,7.30
2022-11-27T01:57:30.040Z,7.20
2022-11-27T01:59:59.815Z,7.20
2022-11-27T02:02:26.616Z,7.10
2022-11-27T02:04:54.720Z,7.00
2022-11-27T02:07:21.844Z,7.00
2022-11-27T02:09:48.734Z,6.90
2022-11-27T02:12:24.931Z,6.80
2022-11-27T02:14:54.476Z,6.70
2022-11-27T02:17:30.199Z,6.60
2022-11-27T02:20:37.184Z,6.50
2022-11-27T02:23:33.772Z,6.50
2022-11-27T02:26:39.465Z,6.30
2022-11-27T02:29:09.993Z,6.20
2022-11-27T02:31:58.436Z,6.10
2022-11-27T02:34:46.492Z,6.00
2022-11-27T02:37:25.264Z,5.90
2022-11-27T02:40:13.068Z,5.80
2022-11-27T02:42:44.945Z,5.70
2022-11-27T02:45:16.104Z,5.70
2022-11-27T02:47:46.206Z,5.50
2022-11-27T02:50:18.154Z,5.40
2022-11-27T02:52:46.620Z,5.30
2022-11-27T02:55:17.052Z,5.30
2022-11-27T02:57:45.186Z,5.20
2022-11-27T03:00:12.863Z,5.10
2022-11-27T03:02:46.174Z,5.10
2022-11-27T03:05:17.961Z,5.00
2022-11-27T03:07:56.000Z,4.90
2022-11-27T03:10:31.698Z,4.90
2022-11-27T03:12:59.645Z,4.80
2022-11-27T03:15:34.942Z,4.70
2022-11-27T03:18:11.877Z,4.60
2022-11-27T03:20:42.966Z,4.50
2022-11-27T03:23:09.617Z,4.50
2022-11-27T03:25:36.316Z,4.40
2022-11-27T03:28:06.870Z,4.40
2022-11-27T03:30:33.881Z,4.30
2022-11-27T03:33:02.035Z,4.30
2022-11-27T03:35:29.066Z,4.30
2022-11-27T03:37:56.477Z,4.20
2022-11-27T03:40:30.441Z,4.20
2022-11-27T03:43:18.834Z,4.20
2022-11-27T03:46:18.549Z,4.20
2022-11-27T03:49:08.120Z,4.20
2022-11-27T03:52:10.277Z,4.20
2022-11-27T03:55:01.036Z,4.20
2022-11-27T03:58:05.361Z,4.20
2022-11-27T04:00:37.557Z,4.20
2022-11-27T04:03:04.916Z,4.10
2022-11-27T04:05:31.643Z,4.10
2022-11-27T04:07:58.342Z,4.00
2022-11-27T04:10:25.030Z,3.90
2022-11-27T04:12:51.663Z,3.90
2022-11-27T04:15:18.350Z,3.80
2022-11-27T04:17:44.996Z,3.70
2022-11-27T04:20:14.289Z,3.70
2022-11-27T04:22:41.456Z,3.60
2022-11-27T04:25:08.520Z,3.60
2022-11-27T04:27:35.207Z,3.60
2022-11-27T04:30:01.849Z,3.50
2022-11-27T04:32:28.615Z,3.50
2022-11-27T04:34:55.259Z,3.40
2022-11-27T04:37:21.907Z,3.40
2022-11-27T04:39:48.520Z,3.40
2022-11-27T04:42:15.201Z,3.30
2022-11-27T04:44:42.141Z,3.30
2022-11-27T04:47:09.072Z,3.40
2022-11-27T04:49:35.772Z,3.30
2022-11-27T04:52:02.494Z,3.30
2022-11-27T04:54:29.133Z,3.30
2022-11-27T04:56:55.810Z,3.30
2022-11-27T04:59:23.116Z,3.30
2022-11-27T05:01:50.014Z,3.30
2022-11-27T05:04:16.865Z,3.30
2022-11-27T05:06:43.518Z,3.30
2022-11-27T05:09:10.165Z,3.20
2022-11-27T05:11:37.216Z,3.20
2022-11-27T05:14:16.757Z,3.20
2022-11-27T05:16:54.249Z,3.10
2022-11-27T05:19:22.996Z,3.10
2022-11-27T05:21:50.478Z,3.00
2022-11-27T05:24:18.861Z,3.00
2022-11-27T05:26:46.316Z,3.00
2022-11-27T05:29:14.394Z,2.90
2022-11-27T05:31:41.645Z,2.90
2022-11-27T05:34:09.315Z,2.80
2022-11-27T05:36:36.863Z,2.80
2022-11-27T05:39:08.926Z,2.70
2022-11-27T05:41:37.407Z,2.70
2022-11-27T05:44:05.058Z,2.70
2022-11-27T05:46:32.438Z,2.60
2022-11-27T05:48:59.549Z,2.60
2022-11-27T05:51:26.209Z,2.50
2022-11-27T05:53:52.862Z,2.50
2022-11-27T05:56:19.544Z,2.50
2022-11-27T05:58:48.140Z,2.50
2022-11-27T06:01:16.866Z,2.50
2022-11-27T06:03:43.624Z,2.50
2022-11-27T06:06:14.131Z,2.50
2022-11-27T06:08:40.981Z,2.50
2022-11-27T06:11:12.551Z,2.50
2022-11-27T06:13:39.720Z,2.50
2022-11-27T06:16:16.098Z,2.50
2022-11-27T06:18:43.797Z,2.50
2022-11-27T06:21:13.187Z,2.40
2022-11-27T06:23:41.130Z,2.40
2022-11-27T06:26:16.724Z,2.40
2022-11-27T06:28:43.757Z,2.30
2022-11-27T06:31:17.872Z,2.30
2022-11-27T06:33:49.582Z,2.30
2022-11-27T06:36:17.257Z,2.30
2022-11-27T06:38:44.589Z,2.30
2022-11-27T06:41:14.590Z,2.30
2022-11-27T06:43:41.242Z,2.30
2022-11-27T06:46:09.956Z,2.30
2022-11-27T06:48:36.704Z,2.40
2022-11-27T06:51:05.803Z,2.50
2022-11-27T06:53:35.014Z,2.60
2022-11-27T06:56:09.900Z,2.70
2022-11-27T06:58:37.335Z,2.80
2022-11-27T07:01:08.143Z,2.90
2022-11-27T07:03:35.635Z,2.90
2022-11-27T07:06:04.194Z,3.00
2022-11-27T07:08:31.371Z,3.10
2022-11-27T07:11:08.415Z,3.10
2022-11-27T07:13:35.438Z,3.20
2022-11-27T07:16:04.820Z,3.20
2022-11-27T07:18:35.501Z,3.20
2022-11-27T07:21:02.151Z,3.10
2022-11-27T07:23:28.803Z,3.20
2022-11-27T07:25:55.520Z,3.30
2022-11-27T07:28:22.216Z,3.40
2022-11-27T07:30:55.909Z,3.50
2022-11-27T07:33:23.640Z,3.50
2022-11-27T07:35:50.361Z,3.60
2022-11-27T07:38:17.041Z,3.70
2022-11-27T07:40:43.708Z,3.70
2022-11-27T07:43:10.322Z,3.80
2022-11-27T07:45:36.981Z,3.90
2022-11-27T07:48:03.809Z,4.00
2022-11-27T07:50:30.451Z,4.10
2022-11-27T07:52:57.080Z,4.20
2022-11-27T07:55:23.726Z,4.20
2022-11-27T07:57:50.887Z,4.40
2022-11-27T08:00:18.060Z,4.40
2022-11-27T08:02:44.669Z,4.50
2022-11-27T08:05:13.203Z,4.50
2022-11-27T08:07:40.882Z,4.50
2022-11-27T08:10:08.242Z,4.50
2022-11-27T08:12:34.865Z,4.40
2022-11-27T08:15:04.499Z,4.50
2022-11-27T08:17:31.280Z,4.60
2022-11-27T08:19:57.912Z,4.60
2022-11-27T08:22:24.574Z,4.70
2022-11-27T08:24:51.634Z,4.80
2022-11-27T08:27:18.401Z,4.90
2022-11-27T08:29:45.087Z,4.90
2022-11-27T08:32:11.888Z,5.00
2022-11-27T08:34:39.049Z,5.10
2022-11-27T08:37:06.606Z,5.20
2022-11-27T08:39:33.568Z,5.30
2022-11-27T08:42:00.270Z,5.40
2022-11-27T08:44:26.919Z,5.50
2022-11-27T08:46:53.546Z,5.60
2022-11-27T08:49:20.304Z,5.60
2022-11-27T08:51:46.934Z,5.70
2022-11-27T08:54:13.631Z,5.70
2022-11-27T08:56:40.316Z,5.80
2022-11-27T08:59:07.091Z,5.80
2022-11-27T09:01:34.894Z,5.80
2022-11-27T09:04:01.611Z,5.80
2022-11-27T09:06:31.132Z,5.80
2022-11-27T09:09:01.949Z,5.80
2022-11-27T09:11:31.046Z,5.80
2022-11-27T09:13:59.646Z,5.80
2022-11-27T09:16:26.389Z,5.80
2022-11-27T09:18:54.111Z,5.80
2022-11-27T09:21:23.454Z,5.80
2022-11-27T09:23:53.922Z,5.90
2022-11-27T09:26:20.572Z,5.90
2022-11-27T09:28:47.604Z,5.80
2022-11-27T09:31:15.547Z,5.90
2022-11-27T09:33:43.440Z,5.90
2022-11-27T09:36:18.831Z,6.00
2022-11-27T09:38:45.584Z,6.20
2022-11-27T09:41:24.426Z,6.30
2022-11-27T09:43:56.827Z,6.40
2022-11-27T09:46:34.473Z,7.50
2022-11-27T09:49:05.319Z,6.60
2022-11-27T09:51:37.401Z,6.60
2022-11-27T09:54:18.642Z,6.70
2022-11-27T09:56:50.248Z,6.70
2022-11-27T09:59:24.065Z,6.80
2022-11-27T10:01:51.455Z,6.80
2022-11-27T10:04:20.926Z,6.90
2022-11-27T10:07:05.304Z,6.90
2022-11-27T10:09:56.196Z,6.90
2022-11-27T10:12:30.106Z,6.90
2022-11-27T10:15:12.239Z,6.80
2022-11-27T10:17:44.682Z,6.90
2022-11-27T10:20:32.182Z,7.00
2022-11-27T10:23:20.386Z,7.00
2022-11-27T10:25:53.272Z,6.90
2022-11-27T10:28:36.529Z,7.00
2022-11-27T10:31:07.992Z,7.00
2022-11-27T10:34:01.317Z,7.00
2022-11-27T10:36:40.963Z,7.10
2022-11-27T10:39:15.826Z,7.20
2022-11-27T10:42:03.493Z,7.30
2022-11-27T10:44:32.363Z,7.30
2022-11-27T10:47:03.984Z,7.40
2022-11-27T10:49:31.421Z,7.40
2022-11-27T10:51:58.062Z,7.40
2022-11-27T10:54:35.947Z,7.50
2022-11-27T10:57:11.970Z,7.50
2022-11-27T10:59:50.157Z,7.50
2022-11-27T11:02:35.704Z,7.50
2022-11-27T11:08:06.540Z,7.40
2022-11-27T11:10:42.889Z,7.30
2022-11-27T11:13:15.738Z,7.30
2022-11-27T11:16:14.422Z,7.30
2022-11-27T11:18:49.876Z,7.30
2022-11-27T11:21:32.680Z,7.30
2022-11-27T11:24:12.947Z,7.40
2022-11-27T11:26:49.181Z,7.60
2022-11-27T11:29:37.473Z,7.80
2022-11-27T11:32:11.250Z,8.20
2022-11-27T11:34:59.168Z,9.10
2022-11-27T11:37:33.322Z,9.70
2022-11-27T11:40:04.180Z,10.30
2022-11-27T11:42:32.767Z,10.70
2022-11-27T11:45:05.466Z,11.00
2022-11-27T11:47:32.972Z,11.00
2022-11-27T11:49:59.765Z,11.00
2022-11-27T11:52:29.117Z,11.00
2022-11-27T11:55:04.483Z,11.00
2022-11-27T11:57:53.036Z,11.00
2022-11-27T12:00:29.842Z,10.90
2022-11-27T12:03:17.570Z,10.80
2022-11-27T12:06:05.611Z,11.00
2022-11-27T12:09:00.350Z,12.40
2022-11-27T12:11:53.267Z,14.10
2022-11-27T12:14:40.710Z,16.60
2022-11-27T12:17:16.262Z,17.30
2022-11-27T12:19:45.652Z,17.20
2022-11-27T12:22:25.822Z,18.00
2022-11-27T12:25:25.994Z,18.70
2022-11-27T12:28:01.569Z,18.60
2022-11-27T12:30:52.458Z,17.50
2022-11-27T12:33:33.009Z,16.50
2022-11-27T12:36:14.613Z,15.60
2022-11-27T12:38:59.450Z,15.00
2022-11-27T12:41:52.328Z,14.60
2022-11-27T12:44:30.586Z,14.40
2022-11-27T12:47:17.043Z,14.10
2022-11-27T12:49:45.964Z,14.00
2022-11-27T12:52:20.157Z,14.30
2022-11-27T12:55:02.033Z,14.70
2022-11-27T12:57:44.435Z,15.10
2022-11-27T13:00:17.916Z,15.60
2022-11-27T13:02:56.319Z,15.60
2022-11-27T13:05:28.095Z,15.20
2022-11-27T13:08:02.198Z,14.60
2022-11-27T13:10:51.823Z,14.20
2022-11-27T13:13:31.796Z,13.80
2022-11-27T13:16:04.193Z,13.40
2022-11-27T13:18:38.258Z,12.90
2022-11-27T13:21:11.152Z,12.40
2022-11-27T13:23:37.839Z,11.90
2022-11-27T13:26:11.854Z,11.50
2022-11-27T13:28:46.681Z,11.00
2022-11-27T13:31:20.215Z,10.60
2022-11-27T13:33:47.477Z,10.30
2022-11-27T13:36:41.955Z,10.00
2022-11-27T13:39:28.053Z,9.80
2022-11-27T13:42:22.254Z,9.50
2022-11-27T13:45:21.380Z,9.40
2022-11-27T13:47:49.475Z,9.30
2022-11-27T13:50:20.306Z,9.30
2022-11-27T13:53:13.513Z,9.20
2022-11-27T13:55:54.049Z,9.20
2022-11-27T13:58:34.477Z,9.10
2022-11-27T14:01:14.533Z,8.90
2022-11-27T14:03:41.225Z,8.80
2022-11-27T14:06:27.765Z,8.80
2022-11-27T14:09:06.286Z,8.70
2022-11-27T14:11:42.666Z,8.80
2022-11-27T14:14:20.003Z,8.80
2022-11-27T14:17:04.780Z,8.80
2022-11-27T14:19:35.094Z,8.80
2022-11-27T14:22:13.214Z,8.80
2022-11-27T14:24:44.318Z,8.80
2022-11-27T14:27:23.525Z,8.70
2022-11-27T14:29:51.340Z,8.50
2022-11-27T14:32:19.706Z,8.30
2022-11-27T14:34:50.699Z,8.20
2022-11-27T14:37:28.028Z,8.20
2022-11-27T14:39:55.499Z,8.30
2022-11-27T14:42:29.632Z,8.30
2022-11-27T14:45:17.968Z,8.40
2022-11-27T14:47:54.571Z,8.30
2022-11-27T14:50:21.996Z,8.10
2022-11-27T14:52:57.020Z,7.90
2022-11-27T14:55:24.210Z,7.90
2022-11-27T14:57:51.623Z,7.80
2022-11-27T15:00:24.052Z,7.80
2022-11-27T15:02:51.926Z,7.90
2022-11-27T15:05:29.461Z,7.90
2022-11-27T15:07:58.537Z,7.90
2022-11-27T15:10:30.945Z,7.90
2022-11-27T15:12:59.454Z,7.90
2022-11-27T15:15:28.669Z,8.00
2022-11-27T15:18:01.929Z,8.00
2022-11-27T15:20:34.863Z,8.00
2022-11-27T15:23:02.285Z,8.00
2022-11-27T15:25:39.382Z,8.00
2022-11-27T15:28:27.892Z,8.00
2022-11-27T15:30:56.004Z,8.00
2022-11-27T15:33:31.020Z,8.00
2022-11-27T15:36:19.295Z,8.00
2022-11-27T15:38:46.608Z,8.00
2022-11-27T15:41:31.592Z,7.90
2022-11-27T15:43:58.287Z,7.90
2022-11-27T15:46:34.189Z,7.90
2022-11-27T15:49:00.868Z,7.90
2022-11-27T15:51:27.534Z,7.90
2022-11-27T15:53:54.149Z,7.90
2022-11-27T15:56:20.846Z,7.90
2022-11-27T15:58:47.473Z,7.80
2022-11-27T16:01:14.268Z,7.80
2022-11-27T16:03:40.991Z,7.70
2022-11-27T16:06:08.696Z,7.60
2022-11-27T16:08:36.055Z,7.60
2022-11-27T16:11:08.704Z,7.60
2022-11-27T16:13:35.332Z,7.50
2022-11-27T16:16:07.567Z,7.60
2022-11-27T16:18:35.267Z,7.60
2022-11-27T16:21:03.849Z,7.60
2022-11-27T16:23:30.959Z,7.60
2022-11-27T16:25:57.688Z,7.60
2022-11-27T16:28:26.208Z,7.60
2022-11-27T16:30:53.999Z,7.60
2022-11-27T16:33:21.302Z,7.60
2022-11-27T16:35:48.561Z,7.50
2022-11-27T16:38:15.199Z,7.50
2022-11-27T16:40:41.866Z,7.40
2022-11-27T16:43:08.493Z,7.30
2022-11-27T16:45:38.095Z,7.40
2022-11-27T16:48:05.570Z,7.40
2022-11-27T16:50:32.433Z,7.50
2022-11-27T16:52:59.266Z,7.50
2022-11-27T16:55:26.267Z,7.50
2022-11-27T16:57:53.981Z,7.50
2022-11-27T17:00:20.876Z,7.50
2022-11-27T17:02:47.567Z,7.50
2022-11-27T17:05:14.531Z,7.50
2022-11-27T17:07:42.510Z,7.50
2022-11-27T17:10:09.694Z,7.60
2022-11-27T17:12:36.337Z,7.60
2022-11-27T17:15:03.066Z,7.60
2022-11-27T17:17:29.904Z,7.60
2022-11-27T17:20:00.429Z,7.60
2022-11-27T17:22:28.432Z,7.60
2022-11-27T17:24:57.641Z,7.60
2022-11-27T17:27:24.414Z,7.60
2022-11-27T17:29:51.236Z,7.60
2022-11-27T17:32:18.236Z,7.60
2022-11-27T17:34:45.407Z,7.60
2022-11-27T17:37:12.520Z,7.60
2022-11-27T17:39:40.762Z,7.60
2022-11-27T17:42:12.659Z,7.60
2022-11-27T17:44:40.454Z,7.60
2022-11-27T17:47:07.093Z,7.60
2022-11-27T17:49:33.968Z,7.60
2022-11-27T17:52:06.012Z,7.60
2022-11-27T17:54:34.028Z,7.60
2022-11-27T17:57:00.676Z,7.60
2022-11-27T17:59:27.503Z,7.60
2022-11-27T18:01:54.211Z,7.60
2022-11-27T18:04:21.164Z,7.60
2022-11-27T18:06:47.869Z,7.60
2022-11-27T18:09:14.499Z,7.60
2022-11-27T18:11:41.169Z,7.60
2022-11-27T18:14:07.826Z,7.60
2022-11-27T18:16:37.489Z,7.60
2022-11-27T18:19:07.175Z,7.50
2022-11-27T18:21:34.670Z,7.50
2022-11-27T18:29:36.620Z,7.50
2022-11-27T18:32:03.599Z,7.60
2022-11-27T18:34:30.341Z,7.60
2022-11-27T18:36:59.409Z,7.70
2022-11-27T18:39:26.564Z,7.70
2022-11-27T18:41:53.245Z,7.80
2022-11-27T18:44:19.898Z,7.80
2022-11-27T18:46:46.564Z,7.80
2022-11-27T18:49:13.190Z,7.80
2022-11-27T18:51:39.831Z,7.80
2022-11-27T18:54:06.461Z,7.80
2022-11-27T18:56:33.261Z,7.80
2022-11-27T18:59:05.164Z,7.80
2022-11-27T19:01:39.564Z,7.80
2022-11-27T19:04:08.256Z,7.80
2022-11-27T19:06:36.226Z,7.90
2022-11-27T19:09:03.063Z,7.90
2022-11-27T19:11:30.848Z,7.90
2022-11-27T19:13:58.219Z,7.90
2022-11-27T19:16:31.217Z,7.90
2022-11-27T19:18:59.395Z,7.90
2022-11-27T19:21:28.383Z,7.90
2022-11-27T19:23:57.085Z,7.90
2022-11-27T19:26:26.273Z,7.90
2022-11-27T19:28:56.375Z,7.90
2022-11-27T19:31:24.117Z,7.90
2022-11-27T19:33:55.365Z,7.90
2022-11-27T19:36:23.208Z,7.80
2022-11-27T19:38:58.162Z,7.80
2022-11-27T19:41:25.753Z,7.80
2022-11-27T19:43:52.507Z,7.80
2022-11-27T19:46:30.352Z,7.80
2022-11-27T19:48:58.435Z,7.80
2022-11-27T19:51:26.682Z,7.80
2022-11-27T19:53:53.807Z,7.80
2022-11-27T19:56:20.713Z,7.80
2022-11-27T19:58:47.413Z,7.80
2022-11-27T20:01:19.133Z,7.80
2022-11-27T20:03:46.545Z,7.80
2022-11-27T20:06:19.236Z,7.80
2022-11-27T20:08:47.673Z,7.90
2022-11-27T20:11:16.879Z,7.90
2022-11-27T20:13:43.705Z,7.90
2022-11-27T20:16:16.660Z,7.90
2022-11-27T20:18:43.924Z,7.90
2022-11-27T20:21:14.573Z,7.90
2022-11-27T20:23:42.170Z,7.90
2022-11-27T20:26:11.961Z,7.90
2022-11-27T20:28:42.144Z,7.90
2022-11-27T20:31:15.134Z,7.90
2022-11-27T20:33:41.930Z,7.90
2022-11-27T20:36:13.456Z,7.90
2022-11-27T20:38:40.243Z,7.90
2022-11-27T20:41:09.061Z,6.90
2022-11-27T20:43:36.180Z,7.80
2022-11-27T20:46:03.795Z,7.80
2022-11-27T20:48:30.754Z,7.80
2022-11-27T20:51:03.991Z,7.80
2022-11-27T20:53:30.627Z,7.80
2022-11-27T20:56:04.911Z,7.80
2022-11-27T20:58:31.686Z,7.80
2022-11-27T21:01:01.564Z,7.80
2022-11-27T21:03:29.531Z,7.70
2022-11-27T21:05:56.295Z,7.70
2022-11-27T21:08:23.134Z,7.80
2022-11-27T21:10:50.613Z,7.70
2022-11-27T21:13:17.646Z,7.70
2022-11-27T21:15:47.811Z,7.60
2022-11-27T21:18:14.765Z,7.50
2022-11-27T21:20:42.319Z,7.50
2022-11-27T21:23:09.024Z,7.50
2022-11-27T21:25:37.836Z,7.50
2022-11-27T21:28:04.695Z,7.50
2022-11-27T21:30:31.414Z,7.60
2022-11-27T21:32:58.214Z,7.60
2022-11-27T21:35:30.139Z,7.60
2022-11-27T21:37:58.500Z,7.60
2022-11-27T21:40:25.152Z,7.60
2022-11-27T21:42:52.762Z,7.60
2022-11-27T21:45:19.396Z,7.50
2022-11-27T21:47:46.054Z,7.50
2022-11-27T21:50:13.642Z,7.40
2022-11-27T21:52:40.342Z,7.30
2022-11-27T21:55:11.775Z,7.40
2022-11-27T21:57:38.805Z,7.40
2022-11-27T22:00:06.328Z,7.40
2022-11-27T22:02:33.049Z,7.30
2022-11-27T22:04:59.674Z,7.20
2022-11-27T22:07:26.348Z,7.20
2022-11-27T22:09:52.989Z,7.10
2022-11-27T22:12:19.667Z,7.00
2022-11-27T22:14:49.045Z,7.10
2022-11-27T22:17:15.789Z,7.00
2022-11-27T22:19:42.558Z,7.10
2022-11-27T22:22:09.368Z,7.20
2022-11-27T22:24:36.078Z,7.10
2022-11-27T22:27:02.794Z,7.20
2022-11-27T22:29:29.424Z,7.30
2022-11-27T22:31:56.083Z,7.40
2022-11-27T22:34:22.728Z,7.40
2022-11-27T22:36:49.385Z,7.50
2022-11-27T22:39:16.334Z,7.50
2022-11-27T22:41:43.290Z,7.50
2022-11-27T22:44:15.895Z,8.00
2022-11-27T22:46:42.909Z,7.50
2022-11-27T22:49:11.956Z,7.50
2022-11-27T22:51:38.728Z,7.50
2022-11-27T22:54:07.423Z,7.50
2022-11-27T22:56:34.071Z,7.50
2022-11-27T22:59:30.355Z,7.50
2022-11-27T23:01:48.605Z,7.50
2022-11-27T23:04:15.718Z,7.50
2022-11-27T23:06:44.445Z,7.50
2022-11-27T23:09:11.095Z,7.50
2022-11-27T23:11:37.730Z,7.50
2022-11-27T23:14:04.864Z,7.50
2022-11-27T23:16:31.749Z,7.50
2022-11-27T23:18:58.717Z,7.40
2022-11-27T23:21:26.657Z,7.50
2022-11-27T23:23:53.405Z,7.40
2022-11-27T23:26:22.549Z,7.40
2022-11-27T23:28:52.104Z,7.40
2022-11-27T23:31:32.137Z,7.40
2022-11-27T23:34:03.572Z,7.40
2022-11-27T23:36:31.592Z,7.40
2022-11-27T23:39:03.627Z,7.30
2022-11-27T23:41:30.976Z,7.30
2022-11-27T23:43:58.063Z,7.30
2022-11-27T23:46:27.234Z,7.30
2022-11-27T23:48:55.551Z,7.30
2022-11-27T23:51:24.802Z,7.30
2022-11-27T23:53:52.149Z,7.30
2022-11-27T23:56:27.350Z,7.20
2022-11-27T23:58:55.549Z,7.20
